METAR Data
IDs: Format: Raw Decoded Include TAF

Data at: 0116 UTC 06 Dec 2019

KUDG 060056Z AUTO 00000KT 10SM CLR 05/01 A3019 RMK AO2 SLP225 T00500011
KUDG 052356Z AUTO 00000KT 10SM CLR 06/02 A3017 RMK AO2 SLP219 T00610022 10167 20061 53024
KUDG 052256Z AUTO 00000KT 10SM CLR 08/03 A3015 RMK AO2 SLP209 T00780028
KUDG 052056Z AUTO 32005KT 10SM CLR 16/M03 A3010 RMK AO2 SLP194 T01611028 53002
KUDG 051956Z AUTO 29006KT 10SM CLR 17/M03 A3009 RMK AO2 SLP190 T01671028
KUDG 051756Z AUTO VRB04KT 10SM CLR 14/M03 A3010 RMK AO2 SLP192 T01441028 10150 20072 58003
KUDG 051656Z AUTO 36003KT 10SM CLR 14/M03 A3011 RMK AO2 SLP197 T01391028
KUDG 051556Z AUTO 05007KT 350V070 10SM CLR 13/M02 A3012 RMK AO2 SLP199 T01281017
KUDG 051456Z AUTO 01006KT 10SM CLR 11/M01 A3010 RMK AO2 SLP195 T01061006 51032
KUDG 051356Z AUTO 32005KT 10SM CLR 09/00 A3007 RMK AO2 SLP185 T00940000
KUDG 051256Z AUTO 30006KT 10SM CLR 08/M01 A3005 RMK AO2 SLP175 T00831011
KUDG 051156Z AUTO 29008KT 10SM CLR 08/M02 A3001 RMK AO2 SLP163 60005 70007 T00781017 10078 20061 53036
KUDG 051056Z AUTO 28009KT 10SM CLR 08/M01 A2997 RMK AO2 SLP150 T00781011
KUDG 050956Z AUTO 27010KT 10SM CLR 08/M01 A2993 RMK AO2 SLP137 P0002 T00781011
KUDG 050856Z AUTO 26008KT 10SM CLR 06/M01 A2990 RMK AO2 SLP127 P0003 60003 T00611006 53018
KUDG 050756Z AUTO 26006KT 10SM CLR 07/M01 A2988 RMK AO2 SLP119 T00671006
KUDG 050656Z AUTO 25008KT 10SM CLR 07/M01 A2986 RMK AO2 SLP112 T00721006
KUDG 050556Z AUTO 25008KT 10SM CLR 07/00 A2985 RMK AO2 SLP109 P0002 60002 T00720000 10094 20067 51011
KUDG 050456Z AUTO 24008KT 10SM CLR 07/01 A2985 RMK AO2 SLP108 T00720011
KUDG 050356Z AUTO 24009KT 10SM CLR 08/01 A2983 RMK AO2 SLP102 T00780011 401560000
KUDG 050256Z AUTO 24009KT 10SM CLR 09/01 A2982 RMK AO2 SLP098 T00890011 51011
KUDG 050156Z AUTO 24008KT 10SM CLR 09/02 A2980 RMK AO2 SLP095 T00890017
KUDG 050056Z AUTO 24008KT 10SM CLR 09/01 A2980 RMK AO2 SLP093 T00890011
KUDG 042356Z AUTO 23006KT 10SM CLR 09/01 A2978 RMK AO2 SLP088 T00890006 10156 20089 51015
KUDG 042256Z AUTO 24006KT 10SM CLR 09/01 A2977 RMK AO2 SLP085 T00940006
KUDG 042156Z AUTO 23006KT 10SM CLR 13/M01 A2975 RMK AO2 SLP076 T01331006
KUDG 042056Z AUTO 26010KT 10SM CLR 15/M01 A2974 RMK AO2 SLP072 T01501006 55001
KUDG 041956Z AUTO 25010KT 10SM CLR 15/00 A2974 RMK AO2 SLP070 T01500000
KUDG 041856Z AUTO 24012KT 10SM CLR 14/M01 A2973 RMK AO2 SLP069 T01441006
KUDG 041756Z AUTO 24012KT 10SM CLR 14/M01 A2974 RMK AO2 SLP073 T01391011 10139 20000 58031
KUDG 041656Z AUTO 26008KT 10SM CLR 13/M02 A2978 RMK AO2 SLP087 T01331022
KUDG 041556Z AUTO 26005KT 10SM CLR 11/M02 A2982 RMK AO2 SLP098 T01111022
KUDG 041456Z AUTO 30007KT 10SM CLR 09/M01 A2984 RMK AO2 SLP105 T00891006 53018
KUDG 041356Z AUTO 29004KT 10SM CLR 06/02 A2982 RMK AO2 SLP100 T00560022